Weather at Sandoval Regional Medical Center Heliport

Public forecast

Using degrees Fahrenheit for public forecast. Weather courtesy of forecast.io.

Closest aviation weather report (METAR) to Sandoval Regional Medical Center Heliport

Closest report is Double Eagle II Airport, 11.3 nm (20.9 km) SSW.

2024/07/19 08:35 (retrieved 24 minutes ago)

KAEG 190835Z AUTO 19006KT 10SM CLR 16/14 A3037 RMK AO2 T01560135

Closest aviation forecast (TAF) to Sandoval Regional Medical Center Heliport

Closest forecast is Double Eagle II Airport, 11.3 nm (20.9 km) SSW.

2024/07/19 06:30 (retrieved 2 hours ago)

TAF KAEG 190527Z 1906/2006 VRB06KT P6SM SCT100 FM192300 03015G25KT P6SM VCSH BKN080 PROB30 2000/2003 VRB20G35KT 5SM -TSRA OVC070CB FM200400 12010KT P6SM BKN080